Scheldedijk — PBMR — position and weather

sailwx.info

Track history (hours):
 
Tides and Currents Weather Stations Pressure Air Temp Water Temp Dewpoint Dewpoint Depression Visibility Wind Speed Wind Dir Waves Ship Positions

Scheldedijk

Last reported at 2018-Jun-20 19:46 UTC. Time now 2018-Jun-25 15:29 UTC.
Position N 43°08' E 027°57'.

Length 90 m; draft 4.1 m.

Type: Cargo ship. MMSI: 245060000.

Date/timePositionNaut miles runAvg speedWind from/ knotsBaromVisibWave heightAir tempDewpointWater temp
2018-Jun-20 19:46N 43°08' E 027°57'0 0.0
2018-Jun-20 18:16N 43°08' E 027°57'0 0.0
2018-Jun-20 17:58N 43°08' E 027°57'30 7.1
2018-Jun-20 13:44N 42°42' E 028°18'310.4
2018-Jun-20 13:30N 42°40' E 028°20'510.3
2018-Jun-20 13:00N 42°36' E 028°23'510.1
2018-Jun-20 12:31N 42°31' E 028°26'510.0
2018-Jun-20 11:58N 42°26' E 028°29'  
2018-Jun-12 00:34N 37°14' E 002°53'210.3
2018-Jun-12 00:21N 37°13' E 002°50'510.4
2018-Jun-11 23:53N 37°13' E 002°44'410.7
2018-Jun-11 23:30N 37°13' E 002°39'511.1
2018-Jun-11 23:00N 37°12' E 002°32'610.9
2018-Jun-11 22:28N 37°12' E 002°24'4610.3
2018-Jun-11 18:02N 37°06' E 001°27'110.2
2018-Jun-11 17:53N 37°06' E 001°26'810.2
2018-Jun-11 17:08N 37°04' E 001°16'210.2
2018-Jun-11 16:58N 37°03' E 001°14'810.1
2018-Jun-11 16:09N 37°01' E 001°05'710.0
2018-Jun-11 15:27N 36°58' E 000°56'410.0
2018-Jun-11 15:00N 36°57' E 000°51'510.0
2018-Jun-11 14:29N 36°56' E 000°45'  
Track history (hours):
 
Tides and Currents Weather Stations Pressure Air Temp Water Temp Dewpoint Dewpoint Depression Visibility Wind Speed Wind Dir Waves Ship Positions

Scheldedijk

Last reported at 2018-Jun-20 19:46 UTC. Time now 2018-Jun-25 15:29 UTC.
Position N 43°08' E 027°57'.

Length 90 m; draft 4.1 m.

Type: Cargo ship. MMSI: 245060000.

Date/timePositionNaut miles runAvg speedWind from/ knotsBaromVisibWave heightAir tempDewpointWater temp
2018-Jun-20 19:46N 43°08' E 027°57'0 0.0
2018-Jun-20 18:16N 43°08' E 027°57'0 0.0
2018-Jun-20 17:58N 43°08' E 027°57'30 7.1
2018-Jun-20 13:44N 42°42' E 028°18'310.4
2018-Jun-20 13:30N 42°40' E 028°20'510.3
2018-Jun-20 13:00N 42°36' E 028°23'510.1
2018-Jun-20 12:31N 42°31' E 028°26'510.0
2018-Jun-20 11:58N 42°26' E 028°29'  
2018-Jun-12 00:34N 37°14' E 002°53'210.3
2018-Jun-12 00:21N 37°13' E 002°50'510.4
2018-Jun-11 23:53N 37°13' E 002°44'410.7
2018-Jun-11 23:30N 37°13' E 002°39'511.1
2018-Jun-11 23:00N 37°12' E 002°32'610.9
2018-Jun-11 22:28N 37°12' E 002°24'4610.3
2018-Jun-11 18:02N 37°06' E 001°27'110.2
2018-Jun-11 17:53N 37°06' E 001°26'810.2
2018-Jun-11 17:08N 37°04' E 001°16'210.2
2018-Jun-11 16:58N 37°03' E 001°14'810.1
2018-Jun-11 16:09N 37°01' E 001°05'710.0
2018-Jun-11 15:27N 36°58' E 000°56'410.0
2018-Jun-11 15:00N 36°57' E 000°51'510.0
2018-Jun-11 14:29N 36°56' E 000°45'  

Dump ship's entire track history